sensor_id;sensor_type;location;lat;lon;timestamp;temperature;humidity
35299;DHT22;21415;48.054;16.646;2022-09-29T00:00:08;18.40;47.60
35299;DHT22;21415;48.054;16.646;2022-09-29T00:02:34;18.30;47.80
35299;DHT22;21415;48.054;16.646;2022-09-29T00:05:00;18.30;48.40
35299;DHT22;21415;48.054;16.646;2022-09-29T00:07:27;18.30;48.00
35299;DHT22;21415;48.054;16.646;2022-09-29T00:09:53;18.20;48.10
35299;DHT22;21415;48.054;16.646;2022-09-29T00:12:19;18.20;48.30
35299;DHT22;21415;48.054;16.646;2022-09-29T00:14:45;18.20;48.40
35299;DHT22;21415;48.054;16.646;2022-09-29T00:17:11;18.20;48.40
35299;DHT22;21415;48.054;16.646;2022-09-29T00:19:38;18.20;48.50
35299;DHT22;21415;48.054;16.646;2022-09-29T00:22:03;18.10;48.50
35299;DHT22;21415;48.054;16.646;2022-09-29T00:24:29;18.10;48.50
35299;DHT22;21415;48.054;16.646;2022-09-29T00:26:56;18.10;48.60
35299;DHT22;21415;48.054;16.646;2022-09-29T00:29:22;18.10;48.70
35299;DHT22;21415;48.054;16.646;2022-09-29T00:31:48;18.10;48.70
35299;DHT22;21415;48.054;16.646;2022-09-29T00:34:14;18.10;49.30
35299;DHT22;21415;48.054;16.646;2022-09-29T00:36:39;18.10;48.80
35299;DHT22;21415;48.054;16.646;2022-09-29T00:39:06;18.10;48.80
35299;DHT22;21415;48.054;16.646;2022-09-29T00:41:34;18.10;48.70
35299;DHT22;21415;48.054;16.646;2022-09-29T00:49:16;18.10;49.00
35299;DHT22;21415;48.054;16.646;2022-09-29T00:51:48;18.10;49.00
35299;DHT22;21415;48.054;16.646;2022-09-29T00:54:16;18.10;49.00
35299;DHT22;21415;48.054;16.646;2022-09-29T00:56:43;18.00;48.90
35299;DHT22;21415;48.054;16.646;2022-09-29T00:59:13;18.10;48.90
35299;DHT22;21415;48.054;16.646;2022-09-29T01:01:41;18.00;49.00
35299;DHT22;21415;48.054;16.646;2022-09-29T01:04:10;18.00;49.00
35299;DHT22;21415;48.054;16.646;2022-09-29T01:06:43;18.00;49.00
35299;DHT22;21415;48.054;16.646;2022-09-29T01:09:15;18.00;49.20
35299;DHT22;21415;48.054;16.646;2022-09-29T01:11:42;18.00;49.20
35299;DHT22;21415;48.054;16.646;2022-09-29T01:14:09;18.00;49.10
35299;DHT22;21415;48.054;16.646;2022-09-29T01:16:36;18.00;49.10
35299;DHT22;21415;48.054;16.646;2022-09-29T01:19:15;17.90;49.00
35299;DHT22;21415;48.054;16.646;2022-09-29T01:21:53;17.90;49.40
35299;DHT22;21415;48.054;16.646;2022-09-29T01:43:45;17.80;49.70
35299;DHT22;21415;48.054;16.646;2022-09-29T01:46:35;17.80;49.70
35299;DHT22;21415;48.054;16.646;2022-09-29T01:49:03;17.80;49.90
35299;DHT22;21415;48.054;16.646;2022-09-29T01:51:54;17.80;49.80
35299;DHT22;21415;48.054;16.646;2022-09-29T01:54:31;17.80;49.90
35299;DHT22;21415;48.054;16.646;2022-09-29T01:57:06;17.80;49.70
35299;DHT22;21415;48.054;16.646;2022-09-29T01:59:44;17.80;49.60
35299;DHT22;21415;48.054;16.646;2022-09-29T02:02:16;17.90;49.70
35299;DHT22;21415;48.054;16.646;2022-09-29T02:04:53;17.90;49.50
35299;DHT22;21415;48.054;16.646;2022-09-29T02:07:30;17.90;49.40
35299;DHT22;21415;48.054;16.646;2022-09-29T02:10:02;17.90;49.40
35299;DHT22;21415;48.054;16.646;2022-09-29T02:12:32;17.90;49.40
35299;DHT22;21415;48.054;16.646;2022-09-29T02:15:02;17.80;49.30
35299;DHT22;21415;48.054;16.646;2022-09-29T02:17:38;17.80;49.30
35299;DHT22;21415;48.054;16.646;2022-09-29T02:20:05;17.80;49.30
35299;DHT22;21415;48.054;16.646;2022-09-29T02:22:32;17.80;49.30
35299;DHT22;21415;48.054;16.646;2022-09-29T02:24:59;17.80;49.30
35299;DHT22;21415;48.054;16.646;2022-09-29T02:27:27;17.80;49.50
35299;DHT22;21415;48.054;16.646;2022-09-29T02:29:58;17.70;49.50
35299;DHT22;21415;48.054;16.646;2022-09-29T02:32:24;17.70;49.60
35299;DHT22;21415;48.054;16.646;2022-09-29T02:34:52;17.70;49.70
35299;DHT22;21415;48.054;16.646;2022-09-29T02:48:22;17.70;49.90
35299;DHT22;21415;48.054;16.646;2022-09-29T02:51:27;17.70;50.20
35299;DHT22;21415;48.054;16.646;2022-09-29T02:57:00;17.70;50.10
35299;DHT22;21415;48.054;16.646;2022-09-29T03:02:32;17.70;50.60
35299;DHT22;21415;48.054;16.646;2022-09-29T03:04:58;17.70;50.20
35299;DHT22;21415;48.054;16.646;2022-09-29T03:07:24;17.70;50.30
35299;DHT22;21415;48.054;16.646;2022-09-29T03:09:50;17.70;50.40
35299;DHT22;21415;48.054;16.646;2022-09-29T03:12:15;17.70;50.50
35299;DHT22;21415;48.054;16.646;2022-09-29T03:14:42;17.70;50.50
35299;DHT22;21415;48.054;16.646;2022-09-29T03:17:08;17.70;50.70
35299;DHT22;21415;48.054;16.646;2022-09-29T03:19:34;17.70;50.70
35299;DHT22;21415;48.054;16.646;2022-09-29T03:22:00;17.70;50.70
35299;DHT22;21415;48.054;16.646;2022-09-29T03:24:25;17.70;50.80
35299;DHT22;21415;48.054;16.646;2022-09-29T03:26:51;17.70;50.80
35299;DHT22;21415;48.054;16.646;2022-09-29T03:29:17;17.70;50.80
35299;DHT22;21415;48.054;16.646;2022-09-29T03:31:43;17.70;50.80
35299;DHT22;21415;48.054;16.646;2022-09-29T03:34:08;17.70;50.70
35299;DHT22;21415;48.054;16.646;2022-09-29T03:36:34;17.70;50.80
35299;DHT22;21415;48.054;16.646;2022-09-29T03:39:00;17.70;50.70
35299;DHT22;21415;48.054;16.646;2022-09-29T03:41:25;17.70;50.70
35299;DHT22;21415;48.054;16.646;2022-09-29T03:43:51;17.70;50.60
35299;DHT22;21415;48.054;16.646;2022-09-29T03:46:17;17.70;50.60
35299;DHT22;21415;48.054;16.646;2022-09-29T03:48:43;17.70;50.50
35299;DHT22;21415;48.054;16.646;2022-09-29T03:51:09;17.70;50.40
35299;DHT22;21415;48.054;16.646;2022-09-29T03:53:35;17.70;50.30
35299;DHT22;21415;48.054;16.646;2022-09-29T03:56:01;17.60;50.20
35299;DHT22;21415;48.054;16.646;2022-09-29T03:58:27;17.60;50.30
35299;DHT22;21415;48.054;16.646;2022-09-29T04:00:53;17.60;50.00
35299;DHT22;21415;48.054;16.646;2022-09-29T04:03:19;17.60;50.10
35299;DHT22;21415;48.054;16.646;2022-09-29T04:05:46;17.50;50.10
35299;DHT22;21415;48.054;16.646;2022-09-29T04:08:13;17.50;50.20
35299;DHT22;21415;48.054;16.646;2022-09-29T04:10:39;17.50;50.30
35299;DHT22;21415;48.054;16.646;2022-09-29T04:13:06;17.50;50.40
35299;DHT22;21415;48.054;16.646;2022-09-29T04:15:33;17.40;50.40
35299;DHT22;21415;48.054;16.646;2022-09-29T04:17:58;17.40;50.40
35299;DHT22;21415;48.054;16.646;2022-09-29T04:20:25;17.40;50.50
35299;DHT22;21415;48.054;16.646;2022-09-29T04:22:50;17.40;50.50
35299;DHT22;21415;48.054;16.646;2022-09-29T04:25:17;17.40;50.60
35299;DHT22;21415;48.054;16.646;2022-09-29T04:27:43;17.40;50.70
35299;DHT22;21415;48.054;16.646;2022-09-29T04:30:10;17.40;50.70
35299;DHT22;21415;48.054;16.646;2022-09-29T04:32:36;17.40;50.80
35299;DHT22;21415;48.054;16.646;2022-09-29T04:35:02;17.40;50.90
35299;DHT22;21415;48.054;16.646;2022-09-29T04:37:28;17.40;50.90
35299;DHT22;21415;48.054;16.646;2022-09-29T04:39:53;17.30;50.80
35299;DHT22;21415;48.054;16.646;2022-09-29T04:42:20;17.30;50.90
35299;DHT22;21415;48.054;16.646;2022-09-29T04:44:45;17.30;51.00
35299;DHT22;21415;48.054;16.646;2022-09-29T04:47:12;17.30;51.00
35299;DHT22;21415;48.054;16.646;2022-09-29T04:49:37;17.30;51.00
35299;DHT22;21415;48.054;16.646;2022-09-29T04:52:03;17.30;51.00
35299;DHT22;21415;48.054;16.646;2022-09-29T04:54:31;17.30;51.00
35299;DHT22;21415;48.054;16.646;2022-09-29T04:56:57;17.30;51.10
35299;DHT22;21415;48.054;16.646;2022-09-29T04:59:23;17.30;51.00
35299;DHT22;21415;48.054;16.646;2022-09-29T05:01:49;17.30;51.20
35299;DHT22;21415;48.054;16.646;2022-09-29T05:04:16;17.30;51.00
35299;DHT22;21415;48.054;16.646;2022-09-29T05:06:42;17.30;50.50
35299;DHT22;21415;48.054;16.646;2022-09-29T05:09:07;17.20;50.60
35299;DHT22;21415;48.054;16.646;2022-09-29T05:11:33;17.20;50.60
35299;DHT22;21415;48.054;16.646;2022-09-29T05:13:59;17.20;50.70
35299;DHT22;21415;48.054;16.646;2022-09-29T05:16:25;17.10;50.70
35299;DHT22;21415;48.054;16.646;2022-09-29T05:18:51;17.10;50.80
35299;DHT22;21415;48.054;16.646;2022-09-29T05:21:17;17.10;50.80
35299;DHT22;21415;48.054;16.646;2022-09-29T05:23:43;17.00;50.90
35299;DHT22;21415;48.054;16.646;2022-09-29T05:26:10;17.00;51.00
35299;DHT22;21415;48.054;16.646;2022-09-29T05:28:37;17.00;51.00
35299;DHT22;21415;48.054;16.646;2022-09-29T05:31:05;17.00;51.20
35299;DHT22;21415;48.054;16.646;2022-09-29T05:33:31;16.90;51.20
35299;DHT22;21415;48.054;16.646;2022-09-29T05:35:57;16.90;51.30
35299;DHT22;21415;48.054;16.646;2022-09-29T05:38:24;16.90;51.40
35299;DHT22;21415;48.054;16.646;2022-09-29T05:40:50;16.90;51.50
35299;DHT22;21415;48.054;16.646;2022-09-29T05:43:17;17.00;51.50
35299;DHT22;21415;48.054;16.646;2022-09-29T05:45:43;16.90;51.50
35299;DHT22;21415;48.054;16.646;2022-09-29T05:48:09;17.00;51.60
35299;DHT22;21415;48.054;16.646;2022-09-29T05:50:35;17.00;51.50
35299;DHT22;21415;48.054;16.646;2022-09-29T05:53:10;17.00;51.60
35299;DHT22;21415;48.054;16.646;2022-09-29T05:55:36;17.00;51.60
35299;DHT22;21415;48.054;16.646;2022-09-29T05:58:03;17.10;51.70
35299;DHT22;21415;48.054;16.646;2022-09-29T06:00:30;17.10;51.80
35299;DHT22;21415;48.054;16.646;2022-09-29T06:02:59;17.10;51.80
35299;DHT22;21415;48.054;16.646;2022-09-29T06:05:26;17.10;51.80
35299;DHT22;21415;48.054;16.646;2022-09-29T06:07:52;17.20;51.70
35299;DHT22;21415;48.054;16.646;2022-09-29T06:10:19;17.20;51.70
35299;DHT22;21415;48.054;16.646;2022-09-29T06:12:44;17.20;51.60
35299;DHT22;21415;48.054;16.646;2022-09-29T06:15:10;17.30;51.70
35299;DHT22;21415;48.054;16.646;2022-09-29T06:17:36;17.30;51.60
35299;DHT22;21415;48.054;16.646;2022-09-29T06:20:04;17.40;51.40
35299;DHT22;21415;48.054;16.646;2022-09-29T06:22:30;17.40;51.50
35299;DHT22;21415;48.054;16.646;2022-09-29T06:24:56;17.50;51.50
35299;DHT22;21415;48.054;16.646;2022-09-29T06:27:21;17.50;51.70
35299;DHT22;21415;48.054;16.646;2022-09-29T06:29:47;17.60;51.80
35299;DHT22;21415;48.054;16.646;2022-09-29T06:32:13;17.60;51.80
35299;DHT22;21415;48.054;16.646;2022-09-29T06:34:39;17.70;51.80
35299;DHT22;21415;48.054;16.646;2022-09-29T06:37:24;17.70;51.60
35299;DHT22;21415;48.054;16.646;2022-09-29T06:40:03;17.80;51.60
35299;DHT22;21415;48.054;16.646;2022-09-29T06:42:30;17.90;51.70
35299;DHT22;21415;48.054;16.646;2022-09-29T06:44:56;17.90;51.60
35299;DHT22;21415;48.054;16.646;2022-09-29T06:47:22;18.00;51.70
35299;DHT22;21415;48.054;16.646;2022-09-29T06:49:47;18.10;51.60
35299;DHT22;21415;48.054;16.646;2022-09-29T06:52:15;18.10;51.40
35299;DHT22;21415;48.054;16.646;2022-09-29T06:54:41;18.20;51.20
35299;DHT22;21415;48.054;16.646;2022-09-29T06:57:07;18.30;51.30
35299;DHT22;21415;48.054;16.646;2022-09-29T06:59:33;18.30;51.10
35299;DHT22;21415;48.054;16.646;2022-09-29T07:01:59;18.40;50.80
35299;DHT22;21415;48.054;16.646;2022-09-29T07:04:25;18.40;50.80
35299;DHT22;21415;48.054;16.646;2022-09-29T07:06:51;18.40;50.80
35299;DHT22;21415;48.054;16.646;2022-09-29T07:09:17;18.40;50.60
35299;DHT22;21415;48.054;16.646;2022-09-29T07:11:45;18.40;50.60
35299;DHT22;21415;48.054;16.646;2022-09-29T07:14:17;18.50;50.50
35299;DHT22;21415;48.054;16.646;2022-09-29T07:16:43;18.40;50.30
35299;DHT22;21415;48.054;16.646;2022-09-29T07:19:09;18.50;50.30
35299;DHT22;21415;48.054;16.646;2022-09-29T07:21:35;18.50;50.30
35299;DHT22;21415;48.054;16.646;2022-09-29T07:24:01;18.50;50.90
35299;DHT22;21415;48.054;16.646;2022-09-29T07:26:27;18.50;50.30
35299;DHT22;21415;48.054;16.646;2022-09-29T07:28:53;18.50;50.30
35299;DHT22;21415;48.054;16.646;2022-09-29T07:31:20;18.50;50.30
35299;DHT22;21415;48.054;16.646;2022-09-29T07:33:46;18.50;50.30
35299;DHT22;21415;48.054;16.646;2022-09-29T07:36:14;18.50;50.40
35299;DHT22;21415;48.054;16.646;2022-09-29T07:38:40;18.60;50.40
35299;DHT22;21415;48.054;16.646;2022-09-29T07:41:08;18.60;50.20
35299;DHT22;21415;48.054;16.646;2022-09-29T07:43:35;18.60;50.10
35299;DHT22;21415;48.054;16.646;2022-09-29T07:46:01;18.60;50.10
35299;DHT22;21415;48.054;16.646;2022-09-29T07:48:28;18.60;50.10
35299;DHT22;21415;48.054;16.646;2022-09-29T07:51:02;18.60;50.20
35299;DHT22;21415;48.054;16.646;2022-09-29T07:53:29;18.70;50.00
35299;DHT22;21415;48.054;16.646;2022-09-29T07:55:55;18.70;50.10
35299;DHT22;21415;48.054;16.646;2022-09-29T07:58:21;18.70;50.20
35299;DHT22;21415;48.054;16.646;2022-09-29T08:00:53;18.70;50.20
35299;DHT22;21415;48.054;16.646;2022-09-29T08:03:19;18.70;50.00
35299;DHT22;21415;48.054;16.646;2022-09-29T08:05:45;18.80;50.10
35299;DHT22;21415;48.054;16.646;2022-09-29T08:08:11;18.80;50.10
35299;DHT22;21415;48.054;16.646;2022-09-29T08:10:37;18.80;50.10
35299;DHT22;21415;48.054;16.646;2022-09-29T08:13:03;18.90;50.20
35299;DHT22;21415;48.054;16.646;2022-09-29T08:15:28;19.00;50.00
35299;DHT22;21415;48.054;16.646;2022-09-29T08:17:55;19.00;50.10
35299;DHT22;21415;48.054;16.646;2022-09-29T08:20:21;19.10;50.00
35299;DHT22;21415;48.054;16.646;2022-09-29T08:22:47;19.10;50.00
35299;DHT22;21415;48.054;16.646;2022-09-29T08:25:14;19.20;49.90
35299;DHT22;21415;48.054;16.646;2022-09-29T08:27:41;19.20;49.90
35299;DHT22;21415;48.054;16.646;2022-09-29T08:30:07;19.20;49.90
35299;DHT22;21415;48.054;16.646;2022-09-29T08:32:35;19.20;49.90
35299;DHT22;21415;48.054;16.646;2022-09-29T08:35:01;19.30;50.00
35299;DHT22;21415;48.054;16.646;2022-09-29T08:37:27;19.30;50.20
35299;DHT22;21415;48.054;16.646;2022-09-29T08:39:52;19.30;49.80
35299;DHT22;21415;48.054;16.646;2022-09-29T08:42:42;19.40;49.90
35299;DHT22;21415;48.054;16.646;2022-09-29T08:45:21;19.40;49.50
35299;DHT22;21415;48.054;16.646;2022-09-29T08:47:50;19.50;49.60
35299;DHT22;21415;48.054;16.646;2022-09-29T08:52:59;19.50;49.60
35299;DHT22;21415;48.054;16.646;2022-09-29T08:55:46;19.50;49.50
35299;DHT22;21415;48.054;16.646;2022-09-29T08:58:14;19.50;49.40
35299;DHT22;21415;48.054;16.646;2022-09-29T09:03:39;19.50;49.70
35299;DHT22;21415;48.054;16.646;2022-09-29T09:06:32;19.60;49.70
35299;DHT22;21415;48.054;16.646;2022-09-29T09:09:24;19.60;49.70
35299;DHT22;21415;48.054;16.646;2022-09-29T09:12:15;19.70;49.50
35299;DHT22;21415;48.054;16.646;2022-09-29T09:20:40;19.80;50.10
35299;DHT22;21415;48.054;16.646;2022-09-29T09:23:22;19.90;49.60
35299;DHT22;21415;48.054;16.646;2022-09-29T09:25:58;19.90;49.80
35299;DHT22;21415;48.054;16.646;2022-09-29T09:28:32;20.00;49.90
35299;DHT22;21415;48.054;16.646;2022-09-29T09:31:06;20.10;49.90
35299;DHT22;21415;48.054;16.646;2022-09-29T09:36:43;20.20;49.00
35299;DHT22;21415;48.054;16.646;2022-09-29T09:39:28;20.20;49.10
35299;DHT22;21415;48.054;16.646;2022-09-29T09:41:56;20.30;49.40
35299;DHT22;21415;48.054;16.646;2022-09-29T09:44:33;20.40;49.60
35299;DHT22;21415;48.054;16.646;2022-09-29T09:49:43;20.50;48.50
35299;DHT22;21415;48.054;16.646;2022-09-29T09:55:04;20.60;48.70
35299;DHT22;21415;48.054;16.646;2022-09-29T10:00:37;20.80;47.90
35299;DHT22;21415;48.054;16.646;2022-09-29T10:03:06;20.90;47.70
35299;DHT22;21415;48.054;16.646;2022-09-29T10:05:41;20.90;47.50
35299;DHT22;21415;48.054;16.646;2022-09-29T10:08:18;20.90;47.00
35299;DHT22;21415;48.054;16.646;2022-09-29T10:10:45;21.00;46.80
35299;DHT22;21415;48.054;16.646;2022-09-29T10:13:13;21.00;47.90
35299;DHT22;21415;48.054;16.646;2022-09-29T10:16:13;21.10;47.10
35299;DHT22;21415;48.054;16.646;2022-09-29T10:18:50;21.10;46.10
35299;DHT22;21415;48.054;16.646;2022-09-29T10:23:55;21.20;46.10
35299;DHT22;21415;48.054;16.646;2022-09-29T10:26:26;21.20;46.50
35299;DHT22;21415;48.054;16.646;2022-09-29T10:29:02;21.20;46.20
35299;DHT22;21415;48.054;16.646;2022-09-29T10:31:41;21.20;45.60
35299;DHT22;21415;48.054;16.646;2022-09-29T10:34:15;21.30;46.20
35299;DHT22;21415;48.054;16.646;2022-09-29T10:39:42;21.30;45.80
35299;DHT22;21415;48.054;16.646;2022-09-29T10:42:25;21.30;45.90
35299;DHT22;21415;48.054;16.646;2022-09-29T10:47:45;21.50;45.50
35299;DHT22;21415;48.054;16.646;2022-09-29T10:52:40;21.70;45.60
35299;DHT22;21415;48.054;16.646;2022-09-29T10:55:22;21.70;45.80
35299;DHT22;21415;48.054;16.646;2022-09-29T10:57:48;21.80;45.00
35299;DHT22;21415;48.054;16.646;2022-09-29T11:00:36;21.90;45.30
35299;DHT22;21415;48.054;16.646;2022-09-29T11:03:22;21.90;44.70
35299;DHT22;21415;48.054;16.646;2022-09-29T11:05:53;22.00;43.50
35299;DHT22;21415;48.054;16.646;2022-09-29T11:08:21;22.00;43.50
35299;DHT22;21415;48.054;16.646;2022-09-29T11:16:22;22.10;42.80
35299;DHT22;21415;48.054;16.646;2022-09-29T11:18:50;22.10;42.80
35299;DHT22;21415;48.054;16.646;2022-09-29T11:38:50;22.30;42.00
35299;DHT22;21415;48.054;16.646;2022-09-29T11:41:41;22.20;42.90
35299;DHT22;21415;48.054;16.646;2022-09-29T11:44:33;22.20;42.10
35299;DHT22;21415;48.054;16.646;2022-09-29T11:50:12;22.20;42.10
35299;DHT22;21415;48.054;16.646;2022-09-29T11:53:32;22.10;41.90
35299;DHT22;21415;48.054;16.646;2022-09-29T12:12:43;22.10;42.50
35299;DHT22;21415;48.054;16.646;2022-09-29T12:15:15;22.00;42.20
35299;DHT22;21415;48.054;16.646;2022-09-29T12:18:06;22.00;42.60
35299;DHT22;21415;48.054;16.646;2022-09-29T12:20:35;22.00;42.30
35299;DHT22;21415;48.054;16.646;2022-09-29T12:23:06;22.00;42.50
35299;DHT22;21415;48.054;16.646;2022-09-29T12:25:38;22.10;42.40
35299;DHT22;21415;48.054;16.646;2022-09-29T12:28:11;22.00;42.30
35299;DHT22;21415;48.054;16.646;2022-09-29T12:30:51;22.10;42.40
35299;DHT22;21415;48.054;16.646;2022-09-29T12:33:48;22.10;42.40
35299;DHT22;21415;48.054;16.646;2022-09-29T12:36:30;22.20;42.20
35299;DHT22;21415;48.054;16.646;2022-09-29T12:39:33;22.20;42.20
35299;DHT22;21415;48.054;16.646;2022-09-29T12:42:25;22.20;42.00
35299;DHT22;21415;48.054;16.646;2022-09-29T12:48:05;22.20;41.80
35299;DHT22;21415;48.054;16.646;2022-09-29T12:50:39;22.30;41.80
35299;DHT22;21415;48.054;16.646;2022-09-29T12:56:01;22.30;41.70
35299;DHT22;21415;48.054;16.646;2022-09-29T12:58:47;22.30;42.00
35299;DHT22;21415;48.054;16.646;2022-09-29T13:01:32;22.30;41.90
35299;DHT22;21415;48.054;16.646;2022-09-29T13:09:59;22.30;41.40
35299;DHT22;21415;48.054;16.646;2022-09-29T13:12:37;22.30;41.30
35299;DHT22;21415;48.054;16.646;2022-09-29T13:18:11;22.20;41.30
35299;DHT22;21415;48.054;16.646;2022-09-29T13:23:44;22.10;41.40
35299;DHT22;21415;48.054;16.646;2022-09-29T13:28:52;22.10;42.40
35299;DHT22;21415;48.054;16.646;2022-09-29T13:31:22;22.10;41.70
35299;DHT22;21415;48.054;16.646;2022-09-29T13:33:53;22.00;41.90
35299;DHT22;21415;48.054;16.646;2022-09-29T13:36:36;22.00;41.90
35299;DHT22;21415;48.054;16.646;2022-09-29T13:39:23;22.00;41.70
35299;DHT22;21415;48.054;16.646;2022-09-29T13:41:54;22.00;41.80
35299;DHT22;21415;48.054;16.646;2022-09-29T13:44:26;22.00;42.10
35299;DHT22;21415;48.054;16.646;2022-09-29T13:46:54;22.00;42.20
35299;DHT22;21415;48.054;16.646;2022-09-29T13:54:26;22.10;42.20
35299;DHT22;21415;48.054;16.646;2022-09-29T13:59:27;22.10;41.40
35299;DHT22;21415;48.054;16.646;2022-09-29T14:01:56;22.10;41.70
35299;DHT22;21415;48.054;16.646;2022-09-29T14:12:41;22.10;41.20
35299;DHT22;21415;48.054;16.646;2022-09-29T14:15:12;22.20;41.50
35299;DHT22;21415;48.054;16.646;2022-09-29T14:17:45;22.10;41.20
35299;DHT22;21415;48.054;16.646;2022-09-29T14:20:19;22.10;41.40
35299;DHT22;21415;48.054;16.646;2022-09-29T14:33:12;22.20;40.50
35299;DHT22;21415;48.054;16.646;2022-09-29T14:35:41;22.20;40.50
35299;DHT22;21415;48.054;16.646;2022-09-29T14:41:00;22.10;40.50
35299;DHT22;21415;48.054;16.646;2022-09-29T14:43:53;22.10;40.40
35299;DHT22;21415;48.054;16.646;2022-09-29T14:50:02;22.00;40.80
35299;DHT22;21415;48.054;16.646;2022-09-29T14:53:14;21.90;40.90
35299;DHT22;21415;48.054;16.646;2022-09-29T15:01:29;21.90;40.70
35299;DHT22;21415;48.054;16.646;2022-09-29T15:04:13;21.90;40.90
35299;DHT22;21415;48.054;16.646;2022-09-29T15:06:48;21.90;40.60
35299;DHT22;21415;48.054;16.646;2022-09-29T15:11:47;21.90;41.10
35299;DHT22;21415;48.054;16.646;2022-09-29T15:14:33;21.90;41.00
35299;DHT22;21415;48.054;16.646;2022-09-29T15:20:22;21.90;41.30
35299;DHT22;21415;48.054;16.646;2022-09-29T15:23:01;21.90;41.00
35299;DHT22;21415;48.054;16.646;2022-09-29T15:25:29;21.90;41.20
35299;DHT22;21415;48.054;16.646;2022-09-29T15:28:20;21.90;41.40
35299;DHT22;21415;48.054;16.646;2022-09-29T15:30:50;21.80;41.50
35299;DHT22;21415;48.054;16.646;2022-09-29T15:33:28;21.80;41.80
35299;DHT22;21415;48.054;16.646;2022-09-29T15:36:07;21.80;41.90
35299;DHT22;21415;48.054;16.646;2022-09-29T15:38:41;21.70;42.10
35299;DHT22;21415;48.054;16.646;2022-09-29T15:43:41;21.60;42.30
35299;DHT22;21415;48.054;16.646;2022-09-29T15:46:23;21.60;42.40
35299;DHT22;21415;48.054;16.646;2022-09-29T15:49:18;21.60;42.60
35299;DHT22;21415;48.054;16.646;2022-09-29T15:52:02;21.50;42.70
35299;DHT22;21415;48.054;16.646;2022-09-29T15:54:31;21.50;43.00
35299;DHT22;21415;48.054;16.646;2022-09-29T15:57:02;21.50;42.90
35299;DHT22;21415;48.054;16.646;2022-09-29T15:59:52;21.50;43.10
35299;DHT22;21415;48.054;16.646;2022-09-29T16:02:39;21.40;43.20
35299;DHT22;21415;48.054;16.646;2022-09-29T16:05:11;21.40;43.40
35299;DHT22;21415;48.054;16.646;2022-09-29T16:07:47;21.30;43.70
35299;DHT22;21415;48.054;16.646;2022-09-29T16:10:16;21.30;43.60
35299;DHT22;21415;48.054;16.646;2022-09-29T16:12:57;21.30;43.60
35299;DHT22;21415;48.054;16.646;2022-09-29T16:15:34;21.30;43.80
35299;DHT22;21415;48.054;16.646;2022-09-29T16:18:12;21.20;44.20
35299;DHT22;21415;48.054;16.646;2022-09-29T16:20:42;21.20;44.30
35299;DHT22;21415;48.054;16.646;2022-09-29T16:23:20;21.20;44.60
35299;DHT22;21415;48.054;16.646;2022-09-29T16:28:34;21.10;45.30
35299;DHT22;21415;48.054;16.646;2022-09-29T16:31:05;21.00;45.20
35299;DHT22;21415;48.054;16.646;2022-09-29T16:33:35;21.00;45.50
35299;DHT22;21415;48.054;16.646;2022-09-29T16:36:05;21.00;45.60
35299;DHT22;21415;48.054;16.646;2022-09-29T16:38:33;20.90;45.90
35299;DHT22;21415;48.054;16.646;2022-09-29T16:41:13;20.90;46.00
35299;DHT22;21415;48.054;16.646;2022-09-29T16:43:39;20.80;46.40
35299;DHT22;21415;48.054;16.646;2022-09-29T16:46:13;20.80;46.20
35299;DHT22;21415;48.054;16.646;2022-09-29T16:48:43;20.80;46.50
35299;DHT22;21415;48.054;16.646;2022-09-29T16:51:15;20.70;46.90
35299;DHT22;21415;48.054;16.646;2022-09-29T16:53:41;20.70;47.60
35299;DHT22;21415;48.054;16.646;2022-09-29T16:56:29;20.70;47.00
35299;DHT22;21415;48.054;16.646;2022-09-29T16:59:05;20.60;47.30
35299;DHT22;21415;48.054;16.646;2022-09-29T17:01:33;20.60;47.10
35299;DHT22;21415;48.054;16.646;2022-09-29T17:03:59;20.50;47.00
35299;DHT22;21415;48.054;16.646;2022-09-29T17:06:24;20.50;47.20
35299;DHT22;21415;48.054;16.646;2022-09-29T17:08:50;20.40;47.40
35299;DHT22;21415;48.054;16.646;2022-09-29T17:11:16;20.40;47.50
35299;DHT22;21415;48.054;16.646;2022-09-29T17:13:42;20.40;47.60
35299;DHT22;21415;48.054;16.646;2022-09-29T17:16:07;20.30;47.50
35299;DHT22;21415;48.054;16.646;2022-09-29T17:18:34;20.30;47.60
35299;DHT22;21415;48.054;16.646;2022-09-29T17:21:00;20.30;47.70
35299;DHT22;21415;48.054;16.646;2022-09-29T17:23:26;20.20;47.80
35299;DHT22;21415;48.054;16.646;2022-09-29T17:25:51;20.10;47.80
35299;DHT22;21415;48.054;16.646;2022-09-29T17:28:37;20.00;47.80
35299;DHT22;21415;48.054;16.646;2022-09-29T17:31:03;20.00;47.70
35299;DHT22;21415;48.054;16.646;2022-09-29T17:33:29;19.90;47.60
35299;DHT22;21415;48.054;16.646;2022-09-29T17:35:55;19.80;47.60
35299;DHT22;21415;48.054;16.646;2022-09-29T17:38:21;19.80;47.70
35299;DHT22;21415;48.054;16.646;2022-09-29T17:40:51;19.70;47.70
35299;DHT22;21415;48.054;16.646;2022-09-29T17:43:20;19.60;48.00
35299;DHT22;21415;48.054;16.646;2022-09-29T17:45:48;19.60;48.00
35299;DHT22;21415;48.054;16.646;2022-09-29T17:48:14;19.50;48.20
35299;DHT22;21415;48.054;16.646;2022-09-29T17:50:47;19.40;48.40
35299;DHT22;21415;48.054;16.646;2022-09-29T17:53:13;19.40;48.80
35299;DHT22;21415;48.054;16.646;2022-09-29T17:55:42;19.30;48.60
35299;DHT22;21415;48.054;16.646;2022-09-29T17:58:11;19.30;48.80
35299;DHT22;21415;48.054;16.646;2022-09-29T18:00:39;19.30;48.80
35299;DHT22;21415;48.054;16.646;2022-09-29T18:03:05;19.20;48.60
35299;DHT22;21415;48.054;16.646;2022-09-29T18:05:31;19.20;48.70
35299;DHT22;21415;48.054;16.646;2022-09-29T18:07:58;19.20;48.70
35299;DHT22;21415;48.054;16.646;2022-09-29T18:10:41;19.10;48.80
35299;DHT22;21415;48.054;16.646;2022-09-29T18:13:07;19.10;49.70
35299;DHT22;21415;48.054;16.646;2022-09-29T18:15:33;19.10;48.90
35299;DHT22;21415;48.054;16.646;2022-09-29T18:18:00;19.00;48.90
35299;DHT22;21415;48.054;16.646;2022-09-29T18:20:28;19.00;49.10
35299;DHT22;21415;48.054;16.646;2022-09-29T18:22:55;19.00;49.00
35299;DHT22;21415;48.054;16.646;2022-09-29T18:25:24;19.00;49.20
35299;DHT22;21415;48.054;16.646;2022-09-29T18:27:50;18.90;49.20
35299;DHT22;21415;48.054;16.646;2022-09-29T18:30:36;18.90;49.20
35299;DHT22;21415;48.054;16.646;2022-09-29T18:33:07;18.80;49.80
35299;DHT22;21415;48.054;16.646;2022-09-29T18:35:35;18.80;49.30
35299;DHT22;21415;48.054;16.646;2022-09-29T18:38:02;18.80;49.40
35299;DHT22;21415;48.054;16.646;2022-09-29T18:40:29;18.70;49.40
35299;DHT22;21415;48.054;16.646;2022-09-29T18:42:56;18.70;49.60
35299;DHT22;21415;48.054;16.646;2022-09-29T18:45:30;18.70;49.50